Nearby METAR Reports

 

KGRB - Ashwaubenon, Wisconsin, USA
Distance from station: WSW 10mi, 16km
Updated: 08/15/2018 5:21am
Clear
Clear
 Wind from calm
Wind: Calm
Temperature: 66°F , 19°C
Dew Point: 64°F , 18°C
Humidity: 94%
Barometer: 29.95 inHg , 1014.2 hPa
Clouds: Clear
Visibility: 7 miles , 11 km
2018/08/15 10:21 KGRB 151021Z 00000KT 7SM CLR 19/18 A2995 RMK AO2 T01890178
KOCQ - Oconto, Wisconsin, USA
Distance from station: N 24mi, 39km
Updated: 08/15/2018 5:15am
Clear
Clear
 Wind from calm
Wind: Calm
Temperature: 61°F , 16°C
Dew Point: 59°F , 15°C
Humidity: 94%
Barometer: 29.94 inHg , 1013.9 hPa
Clouds: Clear
Visibility: 10 miles , 16 km
2018/08/15 10:15 KOCQ 151015Z AUTO 00000KT 10SM CLR 16/15 A2994 RMK AO1 T01610145
KMTW - Manitowac Muni, Wisconsin, USA
Distance from station: SSE 31mi, 49km
Updated: 08/15/2018 4:56am
Partly cloudy
Partly cloudy
 Wind from calm
Wind: Calm
Temperature: 66°F , 19°C
Dew Point: 64°F , 18°C
Humidity: 94%
Barometer: 29.95 inHg , 1014.2 hPa
Clouds: Partly cloudy
Visibility: 7 miles , 11 km
Cloud details: Partly cloudy 5500 ft
2018/08/15 09:56 KMTW 150956Z AUTO 00000KT 7SM SCT055 19/18 A2995 RMK AO2 SLP152 T01940183
 
KATW - Appleton/Outagam, Wisconsin, USA
Distance from station: WSW 33mi, 54km
Updated: 08/15/2018 5:20am
Mostly cloudy
Mostly cloudy
 Wind from varies
Wind: varies 3 mph , 6 km/h
Temperature: 68°F , 20°C
Dew Point: 64°F , 18°C
Humidity: 88%
Barometer: 29.95 inHg , 1014.2 hPa
Clouds: Mostly cloudy
Visibility: 10 miles , 16 km
Cloud details: Mostly cloudy 6000 ft
2018/08/15 10:20 KATW 151020Z VRB03KT 10SM BKN060 20/18 A2995 RMK FIRST
KSUE - Sturgeon Bay, Wisconsin, USA
Distance from station: NE 34mi, 55km
Updated: 08/15/2018 4:56am
Clear
Clear
 Wind from calm
Wind: Calm
Temperature: 64°F , 18°C
Dew Point: 63°F , 17°C
Humidity: 94%
Barometer: 29.95 inHg , 1014.2 hPa
Clouds: Clear
Visibility: 10 miles , 16 km
2018/08/15 09:56 KSUE 150956Z AUTO 00000KT 10SM CLR 18/17 A2995 RMK AO2 SLP151 T01830167
KEZS - Shawano Muni, Wisconsin, USA
Distance from station: WNW 36mi, 58km
Updated: 08/15/2018 5:35am
Partly cloudy
Partly cloudy
 Wind from ESE
Wind: ESE 3 mph , 6 km/h
Temperature: 66°F , 19°C
Dew Point: 63°F , 17°C
Humidity: 88%
Barometer: 29.95 inHg , 1014.2 hPa
Clouds: Partly cloudy
Visibility: 10 miles , 16 km
Cloud details: Partly cloudy 600 ft
2018/08/15 10:35 KEZS 151035Z AUTO 11003KT 10SM SCT006 19/17 A2995 RMK AO2 T01880172
 
KCLI - Clintonville, Wisconsin, USA
Distance from station: W 40mi, 64km
Updated: 08/15/2018 5:35am
Clear
Clear
 Wind from calm
Wind: Calm
Temperature: 64°F , 18°C
Dew Point: 61°F , 16°C
Humidity: 88%
Barometer: 29.95 inHg , 1014.2 hPa
Clouds: Clear
Visibility: 7 miles , 11 km
2018/08/15 10:35 KCLI 151035Z AUTO 00000KT 7SM CLR 18/16 A2995 RMK AO2 T01750164
KMNM - Menominee, Michigan, USA
Distance from station: NNE 44mi, 72km
Updated: 08/15/2018 4:56am
Clear
Clear
 Wind from N
Wind: N 3 mph , 6 km/h
Temperature: 61°F , 16°C
Dew Point: 57°F , 14°C
Humidity: 88%
Barometer: 29.95 inHg , 1014.2 hPa
Clouds: Clear
Visibility: 10 miles , 16 km
2018/08/15 09:56 KMNM 150956Z AUTO 35003KT 10SM CLR 16/14 A2995 RMK AO2 SLP154 T01610144 $
KOSH - Oshkosh, Wisconsin, USA
Distance from station: SW 49mi, 78km
Updated: 08/15/2018 4:53am
Mist, Clear
Mist, Clear
 Wind from calm
Wind: Calm
Temperature: 70°F , 21°C
Dew Point: 66°F , 19°C
Humidity: 88%
Barometer: 29.95 inHg , 1014.2 hPa
Summary: Mist
Clouds: Clear
Visibility: 6 miles , 10 km
2018/08/15 09:53 KOSH 150953Z AUTO 00000KT 6SM BR CLR 21/19 A2995 RMK AO2 SLP127 T02060189